sensor_id;sensor_type;location;lat;lon;timestamp;temperature;humidity
31975;DHT22;18500;43.618;1.474;2022-11-20T00:02:11;6.20;12.10
31975;DHT22;18500;43.618;1.474;2022-11-20T00:04:36;6.30;13.10
31975;DHT22;18500;43.618;1.474;2022-11-20T00:07:02;6.30;13.50
31975;DHT22;18500;43.618;1.474;2022-11-20T00:09:28;6.30;12.20
31975;DHT22;18500;43.618;1.474;2022-11-20T00:11:53;6.40;13.00
31975;DHT22;18500;43.618;1.474;2022-11-20T00:14:19;6.40;12.60
31975;DHT22;18500;43.618;1.474;2022-11-20T00:16:45;6.40;13.90
31975;DHT22;18500;43.618;1.474;2022-11-20T00:19:10;6.40;11.30
31975;DHT22;18500;43.618;1.474;2022-11-20T00:21:36;6.40;11.70
31975;DHT22;18500;43.618;1.474;2022-11-20T00:24:01;6.40;11.10
31975;DHT22;18500;43.618;1.474;2022-11-20T00:26:28;6.40;8.90
31975;DHT22;18500;43.618;1.474;2022-11-20T00:28:59;6.50;10.50
31975;DHT22;18500;43.618;1.474;2022-11-20T00:31:25;6.50;8.90
31975;DHT22;18500;43.618;1.474;2022-11-20T00:33:51;6.50;7.30
31975;DHT22;18500;43.618;1.474;2022-11-20T00:36:19;6.40;7.10
31975;DHT22;18500;43.618;1.474;2022-11-20T00:38:45;6.40;7.80
31975;DHT22;18500;43.618;1.474;2022-11-20T00:41:15;6.40;6.70
31975;DHT22;18500;43.618;1.474;2022-11-20T00:43:41;6.40;8.80
31975;DHT22;18500;43.618;1.474;2022-11-20T00:46:10;6.40;8.70
31975;DHT22;18500;43.618;1.474;2022-11-20T00:48:38;6.30;9.50
31975;DHT22;18500;43.618;1.474;2022-11-20T00:51:04;6.30;8.90
31975;DHT22;18500;43.618;1.474;2022-11-20T00:53:30;6.30;10.20
31975;DHT22;18500;43.618;1.474;2022-11-20T00:55:58;6.20;9.70
31975;DHT22;18500;43.618;1.474;2022-11-20T00:58:28;6.30;9.20
31975;DHT22;18500;43.618;1.474;2022-11-20T01:01:03;6.30;8.70
31975;DHT22;18500;43.618;1.474;2022-11-20T01:03:31;6.30;7.90
31975;DHT22;18500;43.618;1.474;2022-11-20T01:06:00;6.30;8.20
31975;DHT22;18500;43.618;1.474;2022-11-20T01:08:30;6.30;8.10
31975;DHT22;18500;43.618;1.474;2022-11-20T01:11:07;6.30;7.70
31975;DHT22;18500;43.618;1.474;2022-11-20T01:13:33;6.30;9.60
31975;DHT22;18500;43.618;1.474;2022-11-20T01:16:11;6.40;9.50
31975;DHT22;18500;43.618;1.474;2022-11-20T01:18:39;6.40;9.50
31975;DHT22;18500;43.618;1.474;2022-11-20T01:21:11;6.40;8.20
31975;DHT22;18500;43.618;1.474;2022-11-20T01:23:39;6.40;8.30
31975;DHT22;18500;43.618;1.474;2022-11-20T01:26:07;6.40;8.60
31975;DHT22;18500;43.618;1.474;2022-11-20T01:28:33;6.40;7.10
31975;DHT22;18500;43.618;1.474;2022-11-20T01:30:59;6.50;8.50
31975;DHT22;18500;43.618;1.474;2022-11-20T01:33:26;6.40;8.00
31975;DHT22;18500;43.618;1.474;2022-11-20T01:35:52;6.50;7.70
31975;DHT22;18500;43.618;1.474;2022-11-20T01:38:18;6.50;8.10
31975;DHT22;18500;43.618;1.474;2022-11-20T01:40:53;6.50;7.20
31975;DHT22;18500;43.618;1.474;2022-11-20T01:43:20;6.40;6.30
31975;DHT22;18500;43.618;1.474;2022-11-20T01:45:59;6.30;6.80
31975;DHT22;18500;43.618;1.474;2022-11-20T01:48:36;6.20;7.80
31975;DHT22;18500;43.618;1.474;2022-11-20T01:51:06;6.00;7.70
31975;DHT22;18500;43.618;1.474;2022-11-20T01:53:37;6.00;10.00
31975;DHT22;18500;43.618;1.474;2022-11-20T01:56:06;5.90;8.40
31975;DHT22;18500;43.618;1.474;2022-11-20T01:58:36;5.80;11.30
31975;DHT22;18500;43.618;1.474;2022-11-20T02:01:05;5.70;13.80
31975;DHT22;18500;43.618;1.474;2022-11-20T02:03:30;5.60;15.70
31975;DHT22;18500;43.618;1.474;2022-11-20T02:06:17;5.60;17.10
31975;DHT22;18500;43.618;1.474;2022-11-20T02:08:44;5.50;18.00
31975;DHT22;18500;43.618;1.474;2022-11-20T02:11:10;5.50;18.70
31975;DHT22;18500;43.618;1.474;2022-11-20T02:13:38;5.40;20.00
31975;DHT22;18500;43.618;1.474;2022-11-20T02:16:31;5.30;21.30
31975;DHT22;18500;43.618;1.474;2022-11-20T02:18:59;5.30;23.50
31975;DHT22;18500;43.618;1.474;2022-11-20T02:24:21;5.20;29.20
31975;DHT22;18500;43.618;1.474;2022-11-20T02:26:55;5.20;31.10
31975;DHT22;18500;43.618;1.474;2022-11-20T02:29:40;5.20;33.00
31975;DHT22;18500;43.618;1.474;2022-11-20T02:32:24;5.10;34.90
31975;DHT22;18500;43.618;1.474;2022-11-20T02:34:50;5.20;37.50
31975;DHT22;18500;43.618;1.474;2022-11-20T02:37:16;5.10;38.80
31975;DHT22;18500;43.618;1.474;2022-11-20T02:39:46;5.10;38.90
31975;DHT22;18500;43.618;1.474;2022-11-20T02:42:13;5.10;40.20
31975;DHT22;18500;43.618;1.474;2022-11-20T02:44:38;5.00;40.10
31975;DHT22;18500;43.618;1.474;2022-11-20T02:47:04;5.00;42.40
31975;DHT22;18500;43.618;1.474;2022-11-20T02:49:30;5.00;43.30
31975;DHT22;18500;43.618;1.474;2022-11-20T02:51:56;5.00;45.00
31975;DHT22;18500;43.618;1.474;2022-11-20T02:54:22;4.90;46.10
31975;DHT22;18500;43.618;1.474;2022-11-20T02:56:48;5.00;48.20
31975;DHT22;18500;43.618;1.474;2022-11-20T02:59:13;4.90;48.10
31975;DHT22;18500;43.618;1.474;2022-11-20T03:01:39;4.90;48.50
31975;DHT22;18500;43.618;1.474;2022-11-20T03:04:05;4.90;49.30
31975;DHT22;18500;43.618;1.474;2022-11-20T03:06:30;4.90;53.60
31975;DHT22;18500;43.618;1.474;2022-11-20T03:08:56;4.80;55.20
31975;DHT22;18500;43.618;1.474;2022-11-20T03:11:22;4.80;54.90
31975;DHT22;18500;43.618;1.474;2022-11-20T03:13:48;4.70;56.30
31975;DHT22;18500;43.618;1.474;2022-11-20T03:16:19;4.70;56.70
31975;DHT22;18500;43.618;1.474;2022-11-20T03:18:45;4.70;58.10
31975;DHT22;18500;43.618;1.474;2022-11-20T03:21:13;4.60;59.20
31975;DHT22;18500;43.618;1.474;2022-11-20T03:23:39;4.70;62.60
31975;DHT22;18500;43.618;1.474;2022-11-20T03:26:17;4.60;64.00
31975;DHT22;18500;43.618;1.474;2022-11-20T03:28:58;4.50;64.10
31975;DHT22;18500;43.618;1.474;2022-11-20T03:31:26;4.50;65.00
31975;DHT22;18500;43.618;1.474;2022-11-20T03:33:52;4.40;65.40
31975;DHT22;18500;43.618;1.474;2022-11-20T03:36:19;4.50;68.30
31975;DHT22;18500;43.618;1.474;2022-11-20T03:38:45;4.50;71.40
31975;DHT22;18500;43.618;1.474;2022-11-20T03:41:16;4.40;71.90
31975;DHT22;18500;43.618;1.474;2022-11-20T03:43:47;4.40;73.70
31975;DHT22;18500;43.618;1.474;2022-11-20T03:46:13;4.30;72.00
31975;DHT22;18500;43.618;1.474;2022-11-20T03:48:39;4.30;70.80
31975;DHT22;18500;43.618;1.474;2022-11-20T03:51:08;4.30;71.70
31975;DHT22;18500;43.618;1.474;2022-11-20T03:53:34;4.20;71.80
31975;DHT22;18500;43.618;1.474;2022-11-20T03:56:00;4.30;70.40
31975;DHT22;18500;43.618;1.474;2022-11-20T03:58:25;4.20;65.90
31975;DHT22;18500;43.618;1.474;2022-11-20T04:00:51;4.20;68.10
31975;DHT22;18500;43.618;1.474;2022-11-20T04:03:17;4.10;68.30
31975;DHT22;18500;43.618;1.474;2022-11-20T04:05:42;4.10;67.90
31975;DHT22;18500;43.618;1.474;2022-11-20T04:08:08;4.10;68.30
31975;DHT22;18500;43.618;1.474;2022-11-20T04:10:34;4.10;67.10
31975;DHT22;18500;43.618;1.474;2022-11-20T04:12:59;4.00;66.40
31975;DHT22;18500;43.618;1.474;2022-11-20T04:15:25;4.00;68.90
31975;DHT22;18500;43.618;1.474;2022-11-20T04:17:50;4.00;70.00
31975;DHT22;18500;43.618;1.474;2022-11-20T04:20:16;4.00;73.40
31975;DHT22;18500;43.618;1.474;2022-11-20T04:22:42;4.00;71.60
31975;DHT22;18500;43.618;1.474;2022-11-20T04:25:08;4.00;72.70
31975;DHT22;18500;43.618;1.474;2022-11-20T04:27:33;3.90;72.30
31975;DHT22;18500;43.618;1.474;2022-11-20T04:29:59;3.90;74.90
31975;DHT22;18500;43.618;1.474;2022-11-20T04:32:25;4.00;76.50
31975;DHT22;18500;43.618;1.474;2022-11-20T04:34:50;3.90;80.10
31975;DHT22;18500;43.618;1.474;2022-11-20T04:37:16;3.90;82.60
31975;DHT22;18500;43.618;1.474;2022-11-20T04:39:41;3.90;80.50
31975;DHT22;18500;43.618;1.474;2022-11-20T04:42:09;3.80;79.60
31975;DHT22;18500;43.618;1.474;2022-11-20T04:45:04;3.80;77.80
31975;DHT22;18500;43.618;1.474;2022-11-20T04:47:30;3.70;75.70
31975;DHT22;18500;43.618;1.474;2022-11-20T04:49:56;3.70;78.70
31975;DHT22;18500;43.618;1.474;2022-11-20T04:52:21;3.70;79.70
31975;DHT22;18500;43.618;1.474;2022-11-20T04:54:47;3.70;77.50
31975;DHT22;18500;43.618;1.474;2022-11-20T04:57:13;3.60;78.90
31975;DHT22;18500;43.618;1.474;2022-11-20T04:59:39;3.60;75.00
31975;DHT22;18500;43.618;1.474;2022-11-20T05:02:05;3.60;78.60
31975;DHT22;18500;43.618;1.474;2022-11-20T05:04:30;3.50;77.70
31975;DHT22;18500;43.618;1.474;2022-11-20T05:06:56;3.50;76.00
31975;DHT22;18500;43.618;1.474;2022-11-20T05:09:22;3.50;80.90
31975;DHT22;18500;43.618;1.474;2022-11-20T05:11:47;3.60;84.40
31975;DHT22;18500;43.618;1.474;2022-11-20T05:14:13;3.50;77.50
31975;DHT22;18500;43.618;1.474;2022-11-20T05:16:39;3.40;77.30
31975;DHT22;18500;43.618;1.474;2022-11-20T05:19:04;3.40;76.40
31975;DHT22;18500;43.618;1.474;2022-11-20T05:21:31;3.40;77.40
31975;DHT22;18500;43.618;1.474;2022-11-20T05:23:57;3.40;74.80
31975;DHT22;18500;43.618;1.474;2022-11-20T05:26:23;3.30;73.50
31975;DHT22;18500;43.618;1.474;2022-11-20T05:28:50;3.30;72.70
31975;DHT22;18500;43.618;1.474;2022-11-20T05:31:18;3.30;72.40
31975;DHT22;18500;43.618;1.474;2022-11-20T05:33:44;3.20;73.00
31975;DHT22;18500;43.618;1.474;2022-11-20T05:36:12;3.20;74.90
31975;DHT22;18500;43.618;1.474;2022-11-20T05:38:38;3.20;77.00
31975;DHT22;18500;43.618;1.474;2022-11-20T05:43:32;3.20;78.40
31975;DHT22;18500;43.618;1.474;2022-11-20T05:45:59;3.20;81.20
31975;DHT22;18500;43.618;1.474;2022-11-20T05:48:25;3.20;81.30
31975;DHT22;18500;43.618;1.474;2022-11-20T05:50:50;3.20;82.50
31975;DHT22;18500;43.618;1.474;2022-11-20T05:53:16;3.30;84.30
31975;DHT22;18500;43.618;1.474;2022-11-20T05:55:42;3.30;84.00
31975;DHT22;18500;43.618;1.474;2022-11-20T05:58:07;3.30;83.30
31975;DHT22;18500;43.618;1.474;2022-11-20T06:00:33;3.30;84.30
31975;DHT22;18500;43.618;1.474;2022-11-20T06:02:58;3.40;83.50
31975;DHT22;18500;43.618;1.474;2022-11-20T06:05:24;3.40;82.40
31975;DHT22;18500;43.618;1.474;2022-11-20T06:07:50;3.40;80.10
31975;DHT22;18500;43.618;1.474;2022-11-20T06:10:15;3.40;77.40
31975;DHT22;18500;43.618;1.474;2022-11-20T06:12:41;3.40;77.30
31975;DHT22;18500;43.618;1.474;2022-11-20T06:15:07;3.40;77.10
31975;DHT22;18500;43.618;1.474;2022-11-20T06:17:33;3.40;76.70
31975;DHT22;18500;43.618;1.474;2022-11-20T06:19:58;3.40;75.40
31975;DHT22;18500;43.618;1.474;2022-11-20T06:22:24;3.40;78.10
31975;DHT22;18500;43.618;1.474;2022-11-20T06:24:50;3.30;75.80
31975;DHT22;18500;43.618;1.474;2022-11-20T06:27:16;3.30;73.50
31975;DHT22;18500;43.618;1.474;2022-11-20T06:29:42;3.20;75.70
31975;DHT22;18500;43.618;1.474;2022-11-20T06:32:07;3.20;77.40
31975;DHT22;18500;43.618;1.474;2022-11-20T06:34:33;3.20;78.00
31975;DHT22;18500;43.618;1.474;2022-11-20T06:36:59;3.20;78.00
31975;DHT22;18500;43.618;1.474;2022-11-20T06:39:24;3.10;78.90
31975;DHT22;18500;43.618;1.474;2022-11-20T06:41:50;3.20;82.30
31975;DHT22;18500;43.618;1.474;2022-11-20T06:44:15;3.10;83.70
31975;DHT22;18500;43.618;1.474;2022-11-20T06:46:41;3.10;84.80
31975;DHT22;18500;43.618;1.474;2022-11-20T06:49:06;3.10;84.20
31975;DHT22;18500;43.618;1.474;2022-11-20T06:51:32;3.10;82.20
31975;DHT22;18500;43.618;1.474;2022-11-20T06:53:58;3.10;84.80
31975;DHT22;18500;43.618;1.474;2022-11-20T06:56:23;3.20;87.20
31975;DHT22;18500;43.618;1.474;2022-11-20T06:58:49;3.20;83.70
31975;DHT22;18500;43.618;1.474;2022-11-20T07:01:15;3.40;84.00
31975;DHT22;18500;43.618;1.474;2022-11-20T07:03:41;3.40;85.50
31975;DHT22;18500;43.618;1.474;2022-11-20T07:06:07;3.50;83.20
31975;DHT22;18500;43.618;1.474;2022-11-20T07:08:34;3.70;83.90
31975;DHT22;18500;43.618;1.474;2022-11-20T07:11:01;3.70;78.90
31975;DHT22;18500;43.618;1.474;2022-11-20T07:13:28;3.80;75.80
31975;DHT22;18500;43.618;1.474;2022-11-20T07:15:54;3.80;74.90
31975;DHT22;18500;43.618;1.474;2022-11-20T07:18:20;3.90;74.90
31975;DHT22;18500;43.618;1.474;2022-11-20T07:20:45;4.00;76.70
31975;DHT22;18500;43.618;1.474;2022-11-20T07:23:11;4.10;78.50
31975;DHT22;18500;43.618;1.474;2022-11-20T07:25:37;4.10;78.70
31975;DHT22;18500;43.618;1.474;2022-11-20T07:28:02;4.20;82.40
31975;DHT22;18500;43.618;1.474;2022-11-20T07:30:29;4.30;84.00
31975;DHT22;18500;43.618;1.474;2022-11-20T07:32:56;4.30;83.00
31975;DHT22;18500;43.618;1.474;2022-11-20T07:35:23;4.40;84.20
31975;DHT22;18500;43.618;1.474;2022-11-20T07:37:49;4.50;85.40
31975;DHT22;18500;43.618;1.474;2022-11-20T07:40:15;4.50;84.30
31975;DHT22;18500;43.618;1.474;2022-11-20T07:42:51;4.50;84.00
31975;DHT22;18500;43.618;1.474;2022-11-20T07:45:18;4.50;84.40
31975;DHT22;18500;43.618;1.474;2022-11-20T07:47:44;4.50;81.20
31975;DHT22;18500;43.618;1.474;2022-11-20T07:50:10;4.50;89.00
31975;DHT22;18500;43.618;1.474;2022-11-20T07:52:36;4.60;87.90
31975;DHT22;18500;43.618;1.474;2022-11-20T07:55:02;4.60;87.20
31975;DHT22;18500;43.618;1.474;2022-11-20T07:57:27;4.70;88.80
31975;DHT22;18500;43.618;1.474;2022-11-20T07:59:53;4.80;81.70
31975;DHT22;18500;43.618;1.474;2022-11-20T08:02:19;5.00;79.10
31975;DHT22;18500;43.618;1.474;2022-11-20T08:04:44;5.10;72.10
31975;DHT22;18500;43.618;1.474;2022-11-20T08:07:10;5.10;65.50
31975;DHT22;18500;43.618;1.474;2022-11-20T08:09:35;5.20;61.50
31975;DHT22;18500;43.618;1.474;2022-11-20T08:12:01;5.20;56.80
31975;DHT22;18500;43.618;1.474;2022-11-20T08:14:45;5.10;56.20
31975;DHT22;18500;43.618;1.474;2022-11-20T08:17:11;5.10;53.60
31975;DHT22;18500;43.618;1.474;2022-11-20T08:19:37;5.10;52.10
31975;DHT22;18500;43.618;1.474;2022-11-20T08:22:03;5.20;53.20
31975;DHT22;18500;43.618;1.474;2022-11-20T08:24:28;5.20;52.00
31975;DHT22;18500;43.618;1.474;2022-11-20T08:26:57;5.30;50.80
31975;DHT22;18500;43.618;1.474;2022-11-20T08:29:25;5.40;49.60
31975;DHT22;18500;43.618;1.474;2022-11-20T08:31:51;5.40;47.90
31975;DHT22;18500;43.618;1.474;2022-11-20T08:34:16;5.40;46.00
31975;DHT22;18500;43.618;1.474;2022-11-20T08:36:42;5.30;45.90
31975;DHT22;18500;43.618;1.474;2022-11-20T08:39:07;5.30;45.20
31975;DHT22;18500;43.618;1.474;2022-11-20T08:41:36;5.50;44.70
31975;DHT22;18500;43.618;1.474;2022-11-20T08:44:04;5.50;45.60
31975;DHT22;18500;43.618;1.474;2022-11-20T08:46:37;5.70;42.60
31975;DHT22;18500;43.618;1.474;2022-11-20T08:49:09;5.80;42.60
31975;DHT22;18500;43.618;1.474;2022-11-20T08:51:36;5.80;38.20
31975;DHT22;18500;43.618;1.474;2022-11-20T08:54:03;5.70;38.80
31975;DHT22;18500;43.618;1.474;2022-11-20T08:56:29;5.80;38.70
31975;DHT22;18500;43.618;1.474;2022-11-20T08:58:55;5.90;35.90
31975;DHT22;18500;43.618;1.474;2022-11-20T09:01:22;5.90;34.10
31975;DHT22;18500;43.618;1.474;2022-11-20T09:03:49;5.90;34.30
31975;DHT22;18500;43.618;1.474;2022-11-20T09:06:15;6.00;34.80
31975;DHT22;18500;43.618;1.474;2022-11-20T09:08:41;6.20;31.80
31975;DHT22;18500;43.618;1.474;2022-11-20T09:11:08;6.40;27.80
31975;DHT22;18500;43.618;1.474;2022-11-20T09:13:35;6.50;27.30
31975;DHT22;18500;43.618;1.474;2022-11-20T09:16:07;6.20;23.40
31975;DHT22;18500;43.618;1.474;2022-11-20T09:18:33;6.20;23.90
31975;DHT22;18500;43.618;1.474;2022-11-20T09:21:03;6.50;26.30
31975;DHT22;18500;43.618;1.474;2022-11-20T09:23:34;6.40;21.60
31975;DHT22;18500;43.618;1.474;2022-11-20T09:26:27;6.40;25.40
31975;DHT22;18500;43.618;1.474;2022-11-20T09:28:52;6.50;23.90
31975;DHT22;18500;43.618;1.474;2022-11-20T09:31:25;6.50;19.20
31975;DHT22;18500;43.618;1.474;2022-11-20T09:33:51;6.70;17.40
31975;DHT22;18500;43.618;1.474;2022-11-20T09:36:17;6.80;15.60
31975;DHT22;18500;43.618;1.474;2022-11-20T09:38:45;6.80;14.90
31975;DHT22;18500;43.618;1.474;2022-11-20T09:55:39;7.00;3.70
31975;DHT22;18500;43.618;1.474;2022-11-20T09:58:21;7.00;1.30
31975;DHT22;18500;43.618;1.474;2022-11-20T10:00:51;7.10;1.00
31975;DHT22;18500;43.618;1.474;2022-11-20T10:03:26;7.10;1.00
31975;DHT22;18500;43.618;1.474;2022-11-20T10:05:56;7.20;1.00
31975;DHT22;18500;43.618;1.474;2022-11-20T10:08:43;7.30;1.00
31975;DHT22;18500;43.618;1.474;2022-11-20T10:24:50;7.60;1.00
31975;DHT22;18500;43.618;1.474;2022-11-20T10:30:18;7.70;1.00
31975;DHT22;18500;43.618;1.474;2022-11-20T10:33:12;7.80;1.00
31975;DHT22;18500;43.618;1.474;2022-11-20T10:35:44;7.90;1.00
31975;DHT22;18500;43.618;1.474;2022-11-20T10:38:30;7.80;1.00
31975;DHT22;18500;43.618;1.474;2022-11-20T10:41:02;8.00;1.00
31975;DHT22;18500;43.618;1.474;2022-11-20T10:43:48;8.20;1.00
31975;DHT22;18500;43.618;1.474;2022-11-20T10:46:20;8.20;1.00
31975;DHT22;18500;43.618;1.474;2022-11-20T10:48:49;8.30;1.00
31975;DHT22;18500;43.618;1.474;2022-11-20T11:02:32;8.90;1.00
31975;DHT22;18500;43.618;1.474;2022-11-20T11:05:08;9.00;1.00
31975;DHT22;18500;43.618;1.474;2022-11-20T11:07:38;9.00;1.00
31975;DHT22;18500;43.618;1.474;2022-11-20T11:10:24;8.90;1.00
31975;DHT22;18500;43.618;1.474;2022-11-20T11:12:51;8.90;1.00
31975;DHT22;18500;43.618;1.474;2022-11-20T11:15:39;9.00;1.00
31975;DHT22;18500;43.618;1.474;2022-11-20T11:18:09;9.10;1.00
31975;DHT22;18500;43.618;1.474;2022-11-20T11:20:35;9.10;1.00
31975;DHT22;18500;43.618;1.474;2022-11-20T11:23:01;9.30;1.00
31975;DHT22;18500;43.618;1.474;2022-11-20T11:25:32;9.90;1.00
31975;DHT22;18500;43.618;1.474;2022-11-20T11:28:22;10.20;1.00
31975;DHT22;18500;43.618;1.474;2022-11-20T11:30:50;10.40;1.00
31975;DHT22;18500;43.618;1.474;2022-11-20T11:35:50;10.10;1.00
31975;DHT22;18500;43.618;1.474;2022-11-20T11:38:22;9.90;1.00
31975;DHT22;18500;43.618;1.474;2022-11-20T11:40:49;9.70;1.00
31975;DHT22;18500;43.618;1.474;2022-11-20T11:43:23;9.70;1.00
31975;DHT22;18500;43.618;1.474;2022-11-20T11:46:32;9.90;1.00
31975;DHT22;18500;43.618;1.474;2022-11-20T11:49:15;10.50;1.00
31975;DHT22;18500;43.618;1.474;2022-11-20T11:52:11;10.70;1.00
31975;DHT22;18500;43.618;1.474;2022-11-20T11:54:50;10.80;1.00
31975;DHT22;18500;43.618;1.474;2022-11-20T12:00:17;11.30;1.00
31975;DHT22;18500;43.618;1.474;2022-11-20T12:05:49;11.40;1.00
31975;DHT22;18500;43.618;1.474;2022-11-20T12:08:31;11.30;1.00
31975;DHT22;18500;43.618;1.474;2022-11-20T12:13:48;11.50;1.00
31975;DHT22;18500;43.618;1.474;2022-11-20T12:16:18;11.80;1.00
31975;DHT22;18500;43.618;1.474;2022-11-20T12:18:48;12.10;1.00
31975;DHT22;18500;43.618;1.474;2022-11-20T12:26:54;12.20;1.00
31975;DHT22;18500;43.618;1.474;2022-11-20T12:29:25;12.50;1.00
31975;DHT22;18500;43.618;1.474;2022-11-20T12:43:26;12.70;1.00
31975;DHT22;18500;43.618;1.474;2022-11-20T13:05:08;12.20;1.00
31975;DHT22;18500;43.618;1.474;2022-11-20T13:07:38;12.10;1.00
31975;DHT22;18500;43.618;1.474;2022-11-20T13:10:33;11.80;1.00
31975;DHT22;18500;43.618;1.474;2022-11-20T13:18:11;9.80;65.00
31975;DHT22;18500;43.618;1.474;2022-11-20T13:20:42;9.60;99.90
31975;DHT22;18500;43.618;1.474;2022-11-20T13:23:08;9.70;99.90
31975;DHT22;18500;43.618;1.474;2022-11-20T13:25:36;9.90;99.90
31975;DHT22;18500;43.618;1.474;2022-11-20T13:30:36;10.00;1.00
31975;DHT22;18500;43.618;1.474;2022-11-20T13:35:41;10.00;99.90
31975;DHT22;18500;43.618;1.474;2022-11-20T13:38:08;10.30;99.90
31975;DHT22;18500;43.618;1.474;2022-11-20T13:40:49;10.70;1.00
31975;DHT22;18500;43.618;1.474;2022-11-20T13:45:41;11.00;10.40
31975;DHT22;18500;43.618;1.474;2022-11-20T13:48:22;10.90;88.70
31975;DHT22;18500;43.618;1.474;2022-11-20T13:51:05;11.00;99.90
31975;DHT22;18500;43.618;1.474;2022-11-20T14:02:01;11.40;1.00
31975;DHT22;18500;43.618;1.474;2022-11-20T14:04:33;11.40;1.00
31975;DHT22;18500;43.618;1.474;2022-11-20T14:07:00;11.50;1.00
31975;DHT22;18500;43.618;1.474;2022-11-20T14:09:34;11.70;1.00
31975;DHT22;18500;43.618;1.474;2022-11-20T14:12:00;11.80;1.00
31975;DHT22;18500;43.618;1.474;2022-11-20T14:14:27;12.20;1.00
31975;DHT22;18500;43.618;1.474;2022-11-20T14:17:05;12.20;1.00
31975;DHT22;18500;43.618;1.474;2022-11-20T14:19:31;12.40;8.10
31975;DHT22;18500;43.618;1.474;2022-11-20T14:24:35;12.50;59.20
31975;DHT22;18500;43.618;1.474;2022-11-20T14:27:00;12.30;1.00
31975;DHT22;18500;43.618;1.474;2022-11-20T14:29:29;12.60;13.60
31975;DHT22;18500;43.618;1.474;2022-11-20T14:31:58;12.60;1.00
31975;DHT22;18500;43.618;1.474;2022-11-20T14:34:32;12.70;1.00
31975;DHT22;18500;43.618;1.474;2022-11-20T14:37:01;12.70;1.00
31975;DHT22;18500;43.618;1.474;2022-11-20T14:39:34;12.70;1.00
31975;DHT22;18500;43.618;1.474;2022-11-20T14:42:00;12.80;1.00
31975;DHT22;18500;43.618;1.474;2022-11-20T14:44:33;12.90;1.00
31975;DHT22;18500;43.618;1.474;2022-11-20T14:47:01;12.70;1.00
31975;DHT22;18500;43.618;1.474;2022-11-20T14:49:29;13.00;1.00
31975;DHT22;18500;43.618;1.474;2022-11-20T14:52:17;13.20;1.00
31975;DHT22;18500;43.618;1.474;2022-11-20T14:54:56;13.20;1.00
31975;DHT22;18500;43.618;1.474;2022-11-20T14:57:30;13.30;1.00
31975;DHT22;18500;43.618;1.474;2022-11-20T15:00:21;13.30;1.00
31975;DHT22;18500;43.618;1.474;2022-11-20T15:02:49;13.40;6.20
31975;DHT22;18500;43.618;1.474;2022-11-20T15:05:17;13.20;1.00
31975;DHT22;18500;43.618;1.474;2022-11-20T15:07:45;13.20;1.00
31975;DHT22;18500;43.618;1.474;2022-11-20T15:10:25;13.00;1.00
31975;DHT22;18500;43.618;1.474;2022-11-20T15:13:05;12.90;1.00
31975;DHT22;18500;43.618;1.474;2022-11-20T15:15:36;12.80;1.00
31975;DHT22;18500;43.618;1.474;2022-11-20T15:18:04;12.60;1.00
31975;DHT22;18500;43.618;1.474;2022-11-20T15:20:32;12.70;1.00
31975;DHT22;18500;43.618;1.474;2022-11-20T15:22:58;12.70;1.00
31975;DHT22;18500;43.618;1.474;2022-11-20T15:25:24;12.70;1.00
31975;DHT22;18500;43.618;1.474;2022-11-20T15:27:55;12.60;99.90
31975;DHT22;18500;43.618;1.474;2022-11-20T15:30:22;12.50;99.90
31975;DHT22;18500;43.618;1.474;2022-11-20T15:32:48;12.50;99.90
31975;DHT22;18500;43.618;1.474;2022-11-20T15:35:15;12.50;99.90
31975;DHT22;18500;43.618;1.474;2022-11-20T15:37:41;12.40;99.90
31975;DHT22;18500;43.618;1.474;2022-11-20T15:40:07;12.40;99.90
31975;DHT22;18500;43.618;1.474;2022-11-20T15:42:33;12.30;99.90
31975;DHT22;18500;43.618;1.474;2022-11-20T15:44:59;12.30;1.00
31975;DHT22;18500;43.618;1.474;2022-11-20T15:47:31;12.20;1.00
31975;DHT22;18500;43.618;1.474;2022-11-20T15:49:57;12.50;99.90
31975;DHT22;18500;43.618;1.474;2022-11-20T15:52:23;12.50;99.90
31975;DHT22;18500;43.618;1.474;2022-11-20T15:54:49;12.40;99.90
31975;DHT22;18500;43.618;1.474;2022-11-20T15:57:14;12.30;1.00
31975;DHT22;18500;43.618;1.474;2022-11-20T15:59:40;12.10;1.00
31975;DHT22;18500;43.618;1.474;2022-11-20T16:02:14;12.10;1.00
31975;DHT22;18500;43.618;1.474;2022-11-20T16:04:41;11.90;1.00
31975;DHT22;18500;43.618;1.474;2022-11-20T16:07:07;11.90;99.90
31975;DHT22;18500;43.618;1.474;2022-11-20T16:09:33;11.80;99.90
31975;DHT22;18500;43.618;1.474;2022-11-20T16:11:58;11.80;99.90
31975;DHT22;18500;43.618;1.474;2022-11-20T16:14:25;11.80;61.70
31975;DHT22;18500;43.618;1.474;2022-11-20T16:17:09;11.70;1.10
31975;DHT22;18500;43.618;1.474;2022-11-20T16:19:35;11.70;1.00
31975;DHT22;18500;43.618;1.474;2022-11-20T16:22:01;11.60;1.00
31975;DHT22;18500;43.618;1.474;2022-11-20T16:24:27;11.50;1.00
31975;DHT22;18500;43.618;1.474;2022-11-20T16:26:56;11.60;1.00
31975;DHT22;18500;43.618;1.474;2022-11-20T16:29:22;11.50;1.00
31975;DHT22;18500;43.618;1.474;2022-11-20T16:31:48;11.50;1.00
31975;DHT22;18500;43.618;1.474;2022-11-20T16:34:15;11.50;1.00
31975;DHT22;18500;43.618;1.474;2022-11-20T16:36:42;11.50;42.50
31975;DHT22;18500;43.618;1.474;2022-11-20T16:39:09;11.50;99.90
31975;DHT22;18500;43.618;1.474;2022-11-20T16:41:34;11.40;99.90
31975;DHT22;18500;43.618;1.474;2022-11-20T16:44:02;11.30;99.90
31975;DHT22;18500;43.618;1.474;2022-11-20T16:46:31;11.50;99.90
31975;DHT22;18500;43.618;1.474;2022-11-20T16:51:24;11.50;99.90
31975;DHT22;18500;43.618;1.474;2022-11-20T16:53:50;11.20;1.00
31975;DHT22;18500;43.618;1.474;2022-11-20T16:56:18;11.40;1.00
31975;DHT22;18500;43.618;1.474;2022-11-20T16:58:45;11.20;99.90
31975;DHT22;18500;43.618;1.474;2022-11-20T17:01:14;11.50;99.90
31975;DHT22;18500;43.618;1.474;2022-11-20T17:03:42;11.50;1.00
31975;DHT22;18500;43.618;1.474;2022-11-20T17:06:16;11.60;1.00
31975;DHT22;18500;43.618;1.474;2022-11-20T17:08:43;11.70;99.90
31975;DHT22;18500;43.618;1.474;2022-11-20T17:11:11;11.90;99.90
31975;DHT22;18500;43.618;1.474;2022-11-20T17:13:37;11.90;99.90
31975;DHT22;18500;43.618;1.474;2022-11-20T17:16:06;12.00;95.10
31975;DHT22;18500;43.618;1.474;2022-11-20T17:18:32;11.90;83.00
31975;DHT22;18500;43.618;1.474;2022-11-20T17:20:58;11.90;81.90
31975;DHT22;18500;43.618;1.474;2022-11-20T17:23:33;11.80;67.60
31975;DHT22;18500;43.618;1.474;2022-11-20T17:28:36;11.90;41.50
31975;DHT22;18500;43.618;1.474;2022-11-20T17:31:22;11.80;37.80
31975;DHT22;18500;43.618;1.474;2022-11-20T17:33:48;11.80;33.40
31975;DHT22;18500;43.618;1.474;2022-11-20T17:36:15;11.40;43.20
31975;DHT22;18500;43.618;1.474;2022-11-20T17:38:41;11.20;60.70
31975;DHT22;18500;43.618;1.474;2022-11-20T17:41:18;11.10;99.90
31975;DHT22;18500;43.618;1.474;2022-11-20T17:43:45;11.00;99.90
31975;DHT22;18500;43.618;1.474;2022-11-20T17:46:18;10.90;99.90
31975;DHT22;18500;43.618;1.474;2022-11-20T17:48:45;10.80;91.20
31975;DHT22;18500;43.618;1.474;2022-11-20T17:51:16;10.80;63.50
31975;DHT22;18500;43.618;1.474;2022-11-20T17:53:44;10.80;70.60
31975;DHT22;18500;43.618;1.474;2022-11-20T17:56:10;10.80;45.10
31975;DHT22;18500;43.618;1.474;2022-11-20T17:58:55;10.80;47.20
31975;DHT22;18500;43.618;1.474;2022-11-20T18:01:21;10.80;99.90
31975;DHT22;18500;43.618;1.474;2022-11-20T18:03:47;10.80;99.90